ADDS METAR Data INFO
IDs: Format: Raw Decoded Include TAF

Data at: 0452 UTC 22 Apr 2018

METAR for:KAOH (Lima/Allen Cnty, OH, US)
Text:KAOH 220353Z AUTO 06005KT 10SM CLR 07/M04 A3036 RMK AO2 SLP286 T00671044
Temperature: 6.7°C ( 44°F)
Dewpoint: -4.4°C ( 24°F) [RH = 45%]
Pressure (altimeter):30.36 inches Hg (1028.2 mb) [Sea level pressure: 1028.6 mb]
Winds:from the ENE (60 degrees) at 6 MPH (5 knots; 2.6 m/s)
Visibility:10 or more sm (16+ km)
Ceiling:at least 12,000 feet AGL
Clouds:sky clear below 12,000 feet AGL
QC Flag:automated observation with no human augmentation